<?xml version="1.0" encoding="UTF-8" standalone="no" ?>
<gpx xmlns="http://www.topografix.com/GPX/1/1" xmlns:xsi="http://www.w3.org/2001/XMLSchema-instance" xsi:schemaLocation="http://www.topografix.com/GPX/1/1 http://www.topografix.com/GPX/1/1/gpx.xsd" version="1.1" creator="VisuGPX - https://www.visugpx.com">
  <metadata>
    <name>Turquie_100points</name>
  </metadata>
  <trk>
    <name><![CDATA[Tour d'Europe: étape 552]]></name>
    <extensions>
      <line xmlns="http://www.topografix.com/GPX/gpx_style/0/2">
        <color>00FF00</color>
        <width>4</width>
      </line>
    </extensions>
    <trkseg>
      <trkpt lat="37.54651" lon="34.48033">
        <ele>1463.44829</ele>
        <time>2022-01-01T08:22:49.479Z</time>
      </trkpt>
      <trkpt lat="37.54602" lon="34.48149">
        <ele>1464.537427</ele>
        <time>2022-01-01T08:27:05.333Z</time>
      </trkpt>
      <trkpt lat="37.54517" lon="34.4845">
        <ele>1463.49439</ele>
        <time>2022-01-01T08:28:07.279Z</time>
      </trkpt>
      <trkpt lat="37.54446" lon="34.48784">
        <ele>1453.835809</ele>
        <time>2022-01-01T08:28:51.293Z</time>
      </trkpt>
      <trkpt lat="37.54407" lon="34.49108">
        <ele>1449.314877</ele>
        <time>2022-01-01T08:29:35.291Z</time>
      </trkpt>
      <trkpt lat="37.5435" lon="34.49408">
        <ele>1446.335583</ele>
        <time>2022-01-01T08:30:21.298Z</time>
      </trkpt>
      <trkpt lat="37.54306" lon="34.49678">
        <ele>1444.623506</ele>
        <time>2022-01-01T08:31:05.291Z</time>
      </trkpt>
      <trkpt lat="37.54281" lon="34.4997">
        <ele>1443.473562</ele>
        <time>2022-01-01T08:31:50.307Z</time>
      </trkpt>
      <trkpt lat="37.54286" lon="34.50245">
        <ele>1441.494044</ele>
        <time>2022-01-01T08:32:36.290Z</time>
      </trkpt>
      <trkpt lat="37.5431" lon="34.50525">
        <ele>1439.894036</ele>
        <time>2022-01-01T08:33:20.288Z</time>
      </trkpt>
      <trkpt lat="37.54332" lon="34.50826">
        <ele>1435.522781</ele>
        <time>2022-01-01T08:34:04.329Z</time>
      </trkpt>
      <trkpt lat="37.5435" lon="34.51155">
        <ele>1425.142134</ele>
        <time>2022-01-01T08:34:32.286Z</time>
      </trkpt>
      <trkpt lat="37.54371" lon="34.51472">
        <ele>1413.745685</ele>
        <time>2022-01-01T08:34:55.273Z</time>
      </trkpt>
      <trkpt lat="37.54395" lon="34.51811">
        <ele>1406.912082</ele>
        <time>2022-01-01T08:35:35.310Z</time>
      </trkpt>
      <trkpt lat="37.54389" lon="34.52084">
        <ele>1408.959526</ele>
        <time>2022-01-01T08:36:21.285Z</time>
      </trkpt>
      <trkpt lat="37.54343" lon="34.52385">
        <ele>1409.954357</ele>
        <time>2022-01-01T08:37:16.283Z</time>
      </trkpt>
      <trkpt lat="37.54281" lon="34.5269">
        <ele>1409.525128</ele>
        <time>2022-01-01T08:38:15.298Z</time>
      </trkpt>
      <trkpt lat="37.54179" lon="34.5297">
        <ele>1404.177555</ele>
        <time>2022-01-01T08:38:59.278Z</time>
      </trkpt>
      <trkpt lat="37.5398" lon="34.53337">
        <ele>1395.210923</ele>
        <time>2022-01-01T08:39:43.275Z</time>
      </trkpt>
      <trkpt lat="37.53762" lon="34.53663">
        <ele>1388.854218</ele>
        <time>2022-01-01T08:40:26.278Z</time>
      </trkpt>
      <trkpt lat="37.5356" lon="34.5397">
        <ele>1379.409444</ele>
        <time>2022-01-01T08:41:02.293Z</time>
      </trkpt>
      <trkpt lat="37.53395" lon="34.54277">
        <ele>1372.11505</ele>
        <time>2022-01-01T08:41:38.298Z</time>
      </trkpt>
      <trkpt lat="37.53283" lon="34.54557">
        <ele>1368.841596</ele>
        <time>2022-01-01T08:42:22.287Z</time>
      </trkpt>
      <trkpt lat="37.53184" lon="34.54828">
        <ele>1366.477593</ele>
        <time>2022-01-01T08:43:06.292Z</time>
      </trkpt>
      <trkpt lat="37.53077" lon="34.55117">
        <ele>1361.3317</ele>
        <time>2022-01-01T08:43:50.280Z</time>
      </trkpt>
      <trkpt lat="37.52977" lon="34.55391">
        <ele>1357.636496</ele>
        <time>2022-01-01T08:44:34.286Z</time>
      </trkpt>
      <trkpt lat="37.52869" lon="34.5568">
        <ele>1353.17504</ele>
        <time>2022-01-01T08:45:20.295Z</time>
      </trkpt>
      <trkpt lat="37.52769" lon="34.55961">
        <ele>1350.8387</ele>
        <time>2022-01-01T08:46:12.288Z</time>
      </trkpt>
      <trkpt lat="37.52661" lon="34.56257">
        <ele>1350.30669</ele>
        <time>2022-01-01T08:47:18.293Z</time>
      </trkpt>
      <trkpt lat="37.52529" lon="34.56533">
        <ele>1348.247385</ele>
        <time>2022-01-01T08:48:25.284Z</time>
      </trkpt>
      <trkpt lat="37.52461" lon="34.56799">
        <ele>1340.09702</ele>
        <time>2022-01-01T09:20:22.099Z</time>
      </trkpt>
      <trkpt lat="37.52319" lon="34.57192">
        <ele>1326.825766</ele>
        <time>2022-01-01T09:21:06.110Z</time>
      </trkpt>
      <trkpt lat="37.52168" lon="34.57599">
        <ele>1311.823161</ele>
        <time>2022-01-01T09:21:48.108Z</time>
      </trkpt>
      <trkpt lat="37.52065" lon="34.57918">
        <ele>1303.165228</ele>
        <time>2022-01-01T09:22:18.109Z</time>
      </trkpt>
      <trkpt lat="37.52008" lon="34.58202">
        <ele>1297.477311</ele>
        <time>2022-01-01T09:22:43.075Z</time>
      </trkpt>
      <trkpt lat="37.51982" lon="34.58468">
        <ele>1291.233128</ele>
        <time>2022-01-01T09:23:05.111Z</time>
      </trkpt>
      <trkpt lat="37.51959" lon="34.58774">
        <ele>1284.712964</ele>
        <time>2022-01-01T09:23:31.142Z</time>
      </trkpt>
      <trkpt lat="37.51929" lon="34.59166">
        <ele>1280.69339</ele>
        <time>2022-01-01T09:24:14.102Z</time>
      </trkpt>
      <trkpt lat="37.51905" lon="34.59471">
        <ele>1280.095526</ele>
        <time>2022-01-01T09:25:05.084Z</time>
      </trkpt>
      <trkpt lat="37.51882" lon="34.59789">
        <ele>1282.12572</ele>
        <time>2022-01-01T09:26:11.083Z</time>
      </trkpt>
      <trkpt lat="37.51855" lon="34.60135">
        <ele>1282.364903</ele>
        <time>2022-01-01T09:27:19.069Z</time>
      </trkpt>
      <trkpt lat="37.51833" lon="34.60426">
        <ele>1280.589226</ele>
        <time>2022-01-01T09:28:08.094Z</time>
      </trkpt>
      <trkpt lat="37.51811" lon="34.6073">
        <ele>1273.776555</ele>
        <time>2022-01-01T09:28:52.077Z</time>
      </trkpt>
      <trkpt lat="37.51782" lon="34.61113">
        <ele>1267.327957</ele>
        <time>2022-01-01T09:29:36.063Z</time>
      </trkpt>
      <trkpt lat="37.51751" lon="34.61528">
        <ele>1260.755243</ele>
        <time>2022-01-01T09:30:20.065Z</time>
      </trkpt>
      <trkpt lat="37.51759" lon="34.61925">
        <ele>1255.49295</ele>
        <time>2022-01-01T09:31:04.068Z</time>
      </trkpt>
      <trkpt lat="37.51801" lon="34.62227">
        <ele>1255.053414</ele>
        <time>2022-01-01T09:31:54.100Z</time>
      </trkpt>
      <trkpt lat="37.51881" lon="34.62532">
        <ele>1252.118457</ele>
        <time>2022-01-01T09:32:49.109Z</time>
      </trkpt>
      <trkpt lat="37.51998" lon="34.62881">
        <ele>1244.682689</ele>
        <time>2022-01-01T09:33:33.131Z</time>
      </trkpt>
      <trkpt lat="37.52097" lon="34.63181">
        <ele>1237.937443</ele>
        <time>2022-01-01T09:34:02.079Z</time>
      </trkpt>
      <trkpt lat="37.52169" lon="34.63503">
        <ele>1229.442341</ele>
        <time>2022-01-01T09:34:31.098Z</time>
      </trkpt>
      <trkpt lat="37.5221" lon="34.63842">
        <ele>1228.839693</ele>
        <time>2022-01-01T09:35:25.112Z</time>
      </trkpt>
      <trkpt lat="37.52251" lon="34.64157">
        <ele>1229.514231</ele>
        <time>2022-01-01T09:36:22.088Z</time>
      </trkpt>
      <trkpt lat="37.52285" lon="34.64441">
        <ele>1230.192568</ele>
        <time>2022-01-01T09:37:12.100Z</time>
      </trkpt>
      <trkpt lat="37.52319" lon="34.64733">
        <ele>1226.120394</ele>
        <time>2022-01-01T09:37:58.104Z</time>
      </trkpt>
      <trkpt lat="37.52373" lon="34.65076">
        <ele>1216.358751</ele>
        <time>2022-01-01T09:38:42.108Z</time>
      </trkpt>
      <trkpt lat="37.52463" lon="34.65468">
        <ele>1209.744182</ele>
        <time>2022-01-01T09:39:26.115Z</time>
      </trkpt>
      <trkpt lat="37.5256" lon="34.65873">
        <ele>1200.20844</ele>
        <time>2022-01-01T09:40:10.101Z</time>
      </trkpt>
      <trkpt lat="37.52549" lon="34.66151">
        <ele>1198.546638</ele>
        <time>2022-01-01T09:41:01.100Z</time>
      </trkpt>
      <trkpt lat="37.52505" lon="34.66393">
        <ele>1196.64821</ele>
        <time>2022-01-01T09:42:03.104Z</time>
      </trkpt>
      <trkpt lat="37.52537" lon="34.66692">
        <ele>1191.772912</ele>
        <time>2022-01-01T09:42:57.126Z</time>
      </trkpt>
      <trkpt lat="37.52479" lon="34.66967">
        <ele>1190.869173</ele>
        <time>2022-01-01T09:44:09.085Z</time>
      </trkpt>
      <trkpt lat="37.52383" lon="34.67219">
        <ele>1202.399289</ele>
        <time>2022-01-01T09:45:44.130Z</time>
      </trkpt>
      <trkpt lat="37.52465" lon="34.67434">
        <ele>1198.681027</ele>
        <time>2022-01-01T09:46:54.091Z</time>
      </trkpt>
      <trkpt lat="37.52368" lon="34.67616">
        <ele>1204.391598</ele>
        <time>2022-01-01T09:48:56.107Z</time>
      </trkpt>
      <trkpt lat="37.52341" lon="34.67892">
        <ele>1204.961385</ele>
        <time>2022-01-01T09:50:20.092Z</time>
      </trkpt>
      <trkpt lat="37.52331" lon="34.68165">
        <ele>1193.402595</ele>
        <time>2022-01-01T09:51:12.123Z</time>
      </trkpt>
      <trkpt lat="37.52393" lon="34.68452">
        <ele>1173.763703</ele>
        <time>2022-01-01T09:51:59.105Z</time>
      </trkpt>
      <trkpt lat="37.52428" lon="34.68775">
        <ele>1163.513713</ele>
        <time>2022-01-01T09:52:51.102Z</time>
      </trkpt>
      <trkpt lat="37.52324" lon="34.69032">
        <ele>1164.892126</ele>
        <time>2022-01-01T09:53:52.110Z</time>
      </trkpt>
      <trkpt lat="37.52309" lon="34.69322">
        <ele>1160.745905</ele>
        <time>2022-01-01T09:55:02.095Z</time>
      </trkpt>
      <trkpt lat="37.52268" lon="34.69624">
        <ele>1150.474557</ele>
        <time>2022-01-01T09:56:02.094Z</time>
      </trkpt>
      <trkpt lat="37.5224" lon="34.69903">
        <ele>1146.461231</ele>
        <time>2022-01-01T09:57:03.086Z</time>
      </trkpt>
      <trkpt lat="37.52279" lon="34.70201">
        <ele>1139.657194</ele>
        <time>2022-01-01T09:58:07.128Z</time>
      </trkpt>
      <trkpt lat="37.52318" lon="34.70447">
        <ele>1143.776253</ele>
        <time>2022-01-01T09:59:48.092Z</time>
      </trkpt>
      <trkpt lat="37.52296" lon="34.70752">
        <ele>1142.961712</ele>
        <time>2022-01-01T10:00:38.091Z</time>
      </trkpt>
      <trkpt lat="37.52381" lon="34.71109">
        <ele>1134.41896</ele>
        <time>2022-01-01T10:01:22.109Z</time>
      </trkpt>
      <trkpt lat="37.52449" lon="34.71499">
        <ele>1124.34868</ele>
        <time>2022-01-01T10:02:06.089Z</time>
      </trkpt>
      <trkpt lat="37.52486" lon="34.71893">
        <ele>1115.699432</ele>
        <time>2022-01-01T10:02:50.091Z</time>
      </trkpt>
      <trkpt lat="37.52414" lon="34.72185">
        <ele>1106.582044</ele>
        <time>2022-01-01T10:03:34.097Z</time>
      </trkpt>
      <trkpt lat="37.52281" lon="34.72401">
        <ele>1107.628885</ele>
        <time>2022-01-01T10:04:18.108Z</time>
      </trkpt>
      <trkpt lat="37.52169" lon="34.72733">
        <ele>1100.657765</ele>
        <time>2022-01-01T10:05:02.105Z</time>
      </trkpt>
      <trkpt lat="37.52284" lon="34.73176">
        <ele>1080.663215</ele>
        <time>2022-01-01T10:05:47.095Z</time>
      </trkpt>
      <trkpt lat="37.52401" lon="34.73586">
        <ele>1058.408115</ele>
        <time>2022-01-01T10:06:31.105Z</time>
      </trkpt>
      <trkpt lat="37.52196" lon="34.73918">
        <ele>1046.27685</ele>
        <time>2022-01-01T10:07:15.095Z</time>
      </trkpt>
      <trkpt lat="37.5186" lon="34.74034">
        <ele>1035.802736</ele>
        <time>2022-01-01T10:07:59.125Z</time>
      </trkpt>
      <trkpt lat="37.51595" lon="34.74256">
        <ele>1024.916179</ele>
        <time>2022-01-01T10:08:42.091Z</time>
      </trkpt>
      <trkpt lat="37.51375" lon="34.74576">
        <ele>1012.122193</ele>
        <time>2022-01-01T10:09:25.099Z</time>
      </trkpt>
      <trkpt lat="37.51296" lon="34.74903">
        <ele>1001.478699</ele>
        <time>2022-01-01T10:09:56.084Z</time>
      </trkpt>
      <trkpt lat="37.51213" lon="34.75261">
        <ele>988.830151</ele>
        <time>2022-01-01T10:10:42.092Z</time>
      </trkpt>
      <trkpt lat="37.51152" lon="34.75611">
        <ele>982.119571</ele>
        <time>2022-01-01T10:11:26.110Z</time>
      </trkpt>
      <trkpt lat="37.51123" lon="34.76043">
        <ele>976.152739</ele>
        <time>2022-01-01T10:12:10.134Z</time>
      </trkpt>
      <trkpt lat="37.51101" lon="34.76396">
        <ele>970.543054</ele>
        <time>2022-01-01T10:12:57.123Z</time>
      </trkpt>
      <trkpt lat="37.51086" lon="34.76692">
        <ele>970.2411</ele>
        <time>2022-01-01T10:13:49.094Z</time>
      </trkpt>
      <trkpt lat="37.5107" lon="34.77008">
        <ele>968.490113</ele>
        <time>2022-01-01T10:14:35.087Z</time>
      </trkpt>
      <trkpt lat="37.51045" lon="34.7739">
        <ele>959.187859</ele>
        <time>2022-01-01T10:15:19.106Z</time>
      </trkpt>
      <trkpt lat="37.50981" lon="34.77678">
        <ele>957.201757</ele>
        <time>2022-01-01T10:16:05.092Z</time>
      </trkpt>
      <trkpt lat="37.50882" lon="34.77929">
        <ele>957.456672</ele>
        <time>2022-01-01T10:16:51.108Z</time>
      </trkpt>
      <trkpt lat="37.50782" lon="34.78176">
        <ele>955.961386</ele>
        <time>2022-01-01T10:17:36.099Z</time>
      </trkpt>
      <trkpt lat="37.50686" lon="34.78448">
        <ele>949.546639</ele>
        <time>2022-01-01T10:18:20.093Z</time>
      </trkpt>
      <trkpt lat="37.50696" lon="34.78843">
        <ele>946.062533</ele>
        <time>2022-01-01T10:19:04.082Z</time>
      </trkpt>
      <trkpt lat="37.5073" lon="34.79203">
        <ele>945.95146</ele>
        <time>2022-01-01T10:19:48.107Z</time>
      </trkpt>
      <trkpt lat="37.50704" lon="34.79489">
        <ele>943.244641</ele>
        <time>2022-01-01T10:20:32.086Z</time>
      </trkpt>
      <trkpt lat="37.50621" lon="34.79798">
        <ele>935.180514</ele>
        <time>2022-01-01T10:21:18.149Z</time>
      </trkpt>
      <trkpt lat="37.50541" lon="34.80123">
        <ele>932.165491</ele>
        <time>2022-01-01T10:22:02.102Z</time>
      </trkpt>
      <trkpt lat="37.50452" lon="34.80454">
        <ele>925.6292</ele>
        <time>2022-01-01T10:22:46.118Z</time>
      </trkpt>
      <trkpt lat="37.50385" lon="34.80769">
        <ele>919.494155</ele>
        <time>2022-01-01T10:23:30.094Z</time>
      </trkpt>
      <trkpt lat="37.50399" lon="34.81067">
        <ele>920.560293</ele>
        <time>2022-01-01T10:24:14.087Z</time>
      </trkpt>
      <trkpt lat="37.50401" lon="34.81357">
        <ele>915.725813</ele>
        <time>2022-01-01T10:24:58.089Z</time>
      </trkpt>
      <trkpt lat="37.50304" lon="34.81617">
        <ele>905.998334</ele>
        <time>2022-01-01T10:25:42.112Z</time>
      </trkpt>
      <trkpt lat="37.50175" lon="34.81867">
        <ele>909.67213</ele>
        <time>2022-01-01T10:26:30.098Z</time>
      </trkpt>
      <trkpt lat="37.50056" lon="34.82113">
        <ele>906.689602</ele>
        <time>2022-01-01T10:27:17.108Z</time>
      </trkpt>
      <trkpt lat="37.49939" lon="34.82354">
        <ele>899.940893</ele>
        <time>2022-01-01T10:28:01.139Z</time>
      </trkpt>
      <trkpt lat="37.49801" lon="34.82629">
        <ele>892.877758</ele>
        <time>2022-01-01T10:28:45.102Z</time>
      </trkpt>
      <trkpt lat="37.4963" lon="34.82841">
        <ele>893.557713</ele>
        <time>2022-01-01T10:29:29.083Z</time>
      </trkpt>
      <trkpt lat="37.49441" lon="34.82996">
        <ele>896.2326</ele>
        <time>2022-01-01T10:30:15.099Z</time>
      </trkpt>
      <trkpt lat="37.49342" lon="34.83248">
        <ele>890.730012</ele>
        <time>2022-01-01T10:31:00.087Z</time>
      </trkpt>
      <trkpt lat="37.49322" lon="34.83561">
        <ele>889.930655</ele>
        <time>2022-01-01T10:31:46.139Z</time>
      </trkpt>
      <trkpt lat="37.49213" lon="34.83831">
        <ele>883.953314</ele>
        <time>2022-01-01T10:32:30.100Z</time>
      </trkpt>
      <trkpt lat="37.49085" lon="34.84083">
        <ele>878.201352</ele>
        <time>2022-01-01T10:33:14.090Z</time>
      </trkpt>
      <trkpt lat="37.48956" lon="34.84318">
        <ele>878.416415</ele>
        <time>2022-01-01T10:33:59.148Z</time>
      </trkpt>
      <trkpt lat="37.4879" lon="34.84518">
        <ele>874.761383</ele>
        <time>2022-01-01T10:34:43.089Z</time>
      </trkpt>
      <trkpt lat="37.48586" lon="34.84667">
        <ele>874.165271</ele>
        <time>2022-01-01T10:35:27.110Z</time>
      </trkpt>
      <trkpt lat="37.48406" lon="34.84857">
        <ele>871.554564</ele>
        <time>2022-01-01T10:36:11.095Z</time>
      </trkpt>
      <trkpt lat="37.48251" lon="34.85065">
        <ele>870.293696</ele>
        <time>2022-01-01T10:36:58.106Z</time>
      </trkpt>
      <trkpt lat="37.48095" lon="34.85263">
        <ele>864.533967</ele>
        <time>2022-01-01T10:37:42.086Z</time>
      </trkpt>
      <trkpt lat="37.47932" lon="34.85471">
        <ele>857.784301</ele>
        <time>2022-01-01T10:38:26.101Z</time>
      </trkpt>
      <trkpt lat="37.4776" lon="34.85652">
        <ele>864.298158</ele>
        <time>2022-01-01T10:39:10.102Z</time>
      </trkpt>
      <trkpt lat="37.47623" lon="34.85883">
        <ele>863.793096</ele>
        <time>2022-01-01T10:39:56.126Z</time>
      </trkpt>
      <trkpt lat="37.47427" lon="34.86045">
        <ele>860.352067</ele>
        <time>2022-01-01T10:40:40.105Z</time>
      </trkpt>
      <trkpt lat="37.47191" lon="34.86213">
        <ele>857.082423</ele>
        <time>2022-01-01T10:41:24.085Z</time>
      </trkpt>
      <trkpt lat="37.4697" lon="34.86354">
        <ele>854.496127</ele>
        <time>2022-01-01T10:42:34.117Z</time>
      </trkpt>
      <trkpt lat="37.46777" lon="34.86513">
        <ele>852.53105</ele>
        <time>2022-01-01T10:43:23.138Z</time>
      </trkpt>
      <trkpt lat="37.46632" lon="34.86712">
        <ele>852.64657</ele>
        <time>2022-01-01T10:44:07.089Z</time>
      </trkpt>
      <trkpt lat="37.46506" lon="34.8696">
        <ele>851.948498</ele>
        <time>2022-01-01T10:44:57.107Z</time>
      </trkpt>
      <trkpt lat="37.4639" lon="34.87181">
        <ele>849.897934</ele>
        <time>2022-01-01T10:45:41.109Z</time>
      </trkpt>
      <trkpt lat="37.46273" lon="34.87407">
        <ele>846.234479</ele>
        <time>2022-01-01T10:46:25.095Z</time>
      </trkpt>
      <trkpt lat="37.46084" lon="34.8756">
        <ele>840.596917</ele>
        <time>2022-01-01T10:47:09.111Z</time>
      </trkpt>
      <trkpt lat="37.45825" lon="34.87658">
        <ele>841.400177</ele>
        <time>2022-01-01T10:47:55.114Z</time>
      </trkpt>
      <trkpt lat="37.45589" lon="34.87672">
        <ele>835.665199</ele>
        <time>2022-01-01T10:48:41.105Z</time>
      </trkpt>
      <trkpt lat="37.45365" lon="34.87629">
        <ele>829.850137</ele>
        <time>2022-01-01T10:49:28.098Z</time>
      </trkpt>
      <trkpt lat="37.45132" lon="34.87585">
        <ele>830.013628</ele>
        <time>2022-01-01T10:50:12.091Z</time>
      </trkpt>
      <trkpt lat="37.44885" lon="34.8753">
        <ele>828.083519</ele>
        <time>2022-01-01T10:50:56.106Z</time>
      </trkpt>
      <trkpt lat="37.4466" lon="34.87469">
        <ele>827.198925</ele>
        <time>2022-01-01T10:51:40.140Z</time>
      </trkpt>
      <trkpt lat="37.44435" lon="34.87424">
        <ele>825.336927</ele>
        <time>2022-01-01T10:52:24.114Z</time>
      </trkpt>
      <trkpt lat="37.44187" lon="34.87441">
        <ele>823.309072</ele>
        <time>2022-01-01T10:53:48.095Z</time>
      </trkpt>
      <trkpt lat="37.43973" lon="34.87522">
        <ele>823.331956</ele>
        <time>2022-01-01T10:54:35.115Z</time>
      </trkpt>
      <trkpt lat="37.43754" lon="34.87628">
        <ele>818.742475</ele>
        <time>2022-01-01T10:55:24.094Z</time>
      </trkpt>
      <trkpt lat="37.43528" lon="34.87672">
        <ele>820.468787</ele>
        <time>2022-01-01T10:56:21.108Z</time>
      </trkpt>
      <trkpt lat="37.43434" lon="34.87638">
        <ele>820.468787</ele>
        <time>2022-01-01T10:57:59.767Z</time>
      </trkpt>
    </trkseg>
  </trk>
</gpx>